メインページ
METAR-TAF:

METAR-TAF

空港 :

タンソンニャット国際空港

ホーチミン, ベトナム

緯度: 10-49N, 経度: 106-40E, 海抜: 19m

現時点の気象観測

当レポートは26分前の12:00(UTC)に作成
東/南東の風 6kt
気温 29°C
湿度 70%
気圧 1008 hPa
視程10km以上
高度1700ftの雲はほとんどない
高度5000ftの千切れ雲あり

METAR: VVTS 141200Z 12006KT 9999 FEW017 BKN050 29/23 Q1008 NOSIG

時間: 19:26 (12:26 UTC)

予報

当レポートは1時間26分前の11:00(UTC)に作成
予報は14日の 12時(UTC)から 15日の 18時(UTC)まで有効
変向風 3kt
視程10km以上
高度1700ftの雲は散在している
高度4000ftの雲は散在している
15日の 06時(UTC)から 15日の 08時(UTC)まで徐々に
の風 10kt

TAF: VVTS 141100Z 1412/1518 VRB03KT 9999 SCT017 SCT040 BECMG 1506/1508 17010KT

4,000以上の空港の気象観測と天気予報(METAR報とTAF報)

利用可能な観測所は地図上に黄色い丸と赤い丸で示す。

丸の上にカーソルを重ねると観測所名を参照できる。

次にクリックすると気象観測と天気予報を参照できる。

マップの切り替え:黒色「×」印の緑ボタンをクリックして拡大、「-」印の緑ボタンをクリックして縮小、緑色の三角印をクリックして隣りの地図に切り替え


METAR-TAF: